createdAt,value
2022-11-29T00:02:23.126Z,65.59
2022-11-29T00:07:19.577Z,65.35
2022-11-29T00:12:16.098Z,65.43
2022-11-29T00:17:12.650Z,65.41
2022-11-29T00:22:09.182Z,65.69
2022-11-29T00:27:05.747Z,65.57
2022-11-29T00:32:02.281Z,65.52
2022-11-29T00:36:58.855Z,65.41
2022-11-29T00:41:55.373Z,65.46
2022-11-29T00:46:51.932Z,65.68
2022-11-29T00:51:48.515Z,65.56
2022-11-29T00:56:45.050Z,65.73
2022-11-29T01:04:09.859Z,66.58
2022-11-29T01:06:38.123Z,66.68
2022-11-29T01:14:02.993Z,66.34
2022-11-29T01:16:31.324Z,65.87
2022-11-29T01:21:27.830Z,65.48
2022-11-29T01:26:24.370Z,65.52
2022-11-29T01:28:52.626Z,65.53
2022-11-29T01:33:49.171Z,65.44
2022-11-29T01:42:36.745Z,65.5
2022-11-29T01:47:33.307Z,65.59
2022-11-29T01:52:29.859Z,65.62
2022-11-29T01:57:26.427Z,65.79
2022-11-29T02:02:22.954Z,65.77
2022-11-29T02:09:47.812Z,65.94
2022-11-29T02:12:16.072Z,65.8
2022-11-29T02:17:12.619Z,65.75
2022-11-29T02:22:09.152Z,65.78
2022-11-29T02:27:05.706Z,65.98
2022-11-29T02:29:33.971Z,65.99
2022-11-29T02:34:30.538Z,66.63
2022-11-29T02:43:18.108Z,66.61
2022-11-29T02:48:14.650Z,66.54
2022-11-29T02:53:11.178Z,66.24
2022-11-29T02:58:07.749Z,66.11
2022-11-29T03:03:04.274Z,65.87
2022-11-29T03:08:00.957Z,65.96
2022-11-29T03:12:57.422Z,65.88
2022-11-29T03:17:53.943Z,66.03
2022-11-29T03:22:50.486Z,66.08
2022-11-29T03:26:20.141Z,65.95
2022-11-29T03:29:01.471Z,65.79
2022-11-29T03:34:08.571Z,66.03
2022-11-29T03:37:01.456Z,66.01
2022-11-29T03:39:01.591Z,66.01
2022-11-29T03:42:01.765Z,66.04
2022-11-29T03:45:01.720Z,66
2022-11-29T03:49:01.987Z,66.17
2022-11-29T03:53:01.405Z,66.28
2022-11-29T03:55:01.559Z,66.22
2022-11-29T03:57:08.656Z,66.15
2022-11-29T04:00:00.484Z,66.12
2022-11-29T04:02:01.408Z,66.16
2022-11-29T04:05:01.425Z,66.14
2022-11-29T04:08:02.036Z,66.22
2022-11-29T04:11:01.589Z,66.38
2022-11-29T04:14:01.581Z,66.97
2022-11-29T04:17:01.444Z,67.11
2022-11-29T04:20:08.064Z,66.96
2022-11-29T04:22:08.029Z,66.98
2022-11-29T04:25:02.080Z,66.4
2022-11-29T04:28:01.578Z,66.52
2022-11-29T04:31:01.445Z,66.31
2022-11-29T04:34:01.619Z,66.16
2022-11-29T04:37:01.914Z,65.88
2022-11-29T04:39:01.974Z,66.02
2022-11-29T04:42:01.416Z,65.9
2022-11-29T04:44:01.628Z,66.02
2022-11-29T04:47:01.436Z,65.9
2022-11-29T04:50:01.426Z,65.78
2022-11-29T04:52:01.449Z,65.88
2022-11-29T04:54:01.489Z,65.8
2022-11-29T04:56:01.664Z,65.87
2022-11-29T05:00:08.791Z,65.93
2022-11-29T05:04:01.860Z,65.93
2022-11-29T05:07:01.478Z,65.93
2022-11-29T05:09:01.806Z,65.86
2022-11-29T05:12:01.499Z,66.02
2022-11-29T05:14:01.448Z,66.1
2022-11-29T05:17:01.412Z,66.05
2022-11-29T05:19:01.427Z,66.03
2022-11-29T05:22:01.435Z,66
2022-11-29T05:24:01.550Z,65.97
2022-11-29T05:26:01.965Z,66.04
2022-11-29T05:29:01.434Z,65.96
2022-11-29T05:31:01.465Z,65.91
2022-11-29T05:34:01.725Z,65.91
2022-11-29T05:37:01.468Z,66.01
2022-11-29T05:40:01.440Z,66.03
2022-11-29T05:42:01.417Z,66.06
2022-11-29T05:45:01.442Z,66.27
2022-11-29T05:47:02.092Z,66.64
2022-11-29T05:50:01.419Z,66.54
2022-11-29T05:52:02.256Z,66.64
2022-11-29T05:55:01.441Z,66.51
2022-11-29T05:57:01.478Z,66.34
2022-11-29T06:00:01.449Z,66.26
2022-11-29T06:02:01.831Z,66.1
2022-11-29T06:04:02.181Z,66.09
2022-11-29T06:07:01.784Z,66.09
2022-11-29T06:10:01.939Z,66.08
2022-11-29T06:13:01.494Z,65.92
2022-11-29T06:16:01.508Z,65.86
2022-11-29T06:18:02.371Z,65.8
2022-11-29T06:21:01.938Z,65.59
2022-11-29T06:24:01.471Z,65.83
2022-11-29T06:26:03.982Z,65.72
2022-11-29T06:28:01.982Z,65.74
2022-11-29T06:31:01.537Z,65.73
2022-11-29T06:33:01.423Z,65.81
2022-11-29T06:35:02.232Z,65.76
2022-11-29T06:38:01.401Z,65.89
2022-11-29T06:40:01.506Z,66.13
2022-11-29T06:44:01.471Z,65.9
2022-11-29T06:48:01.816Z,66.27
2022-11-29T06:50:01.914Z,66.2
2022-11-29T06:53:01.891Z,66.19
2022-11-29T06:56:01.937Z,66.14
2022-11-29T06:58:02.227Z,66.19
2022-11-29T07:01:01.483Z,66.11
2022-11-29T07:03:02.173Z,66.26
2022-11-29T07:06:01.419Z,66.25
2022-11-29T07:10:10.648Z,66.16
2022-11-29T07:14:08.082Z,66.1
2022-11-29T07:17:21.161Z,66.31
2022-11-29T07:20:08.023Z,66.33
2022-11-29T07:23:01.453Z,66.1
2022-11-29T07:25:01.914Z,66.17
2022-11-29T07:28:01.416Z,66.34
2022-11-29T07:30:01.412Z,66.2
2022-11-29T07:33:02.096Z,66.32
2022-11-29T07:36:01.435Z,66.11
2022-11-29T07:38:01.931Z,66.27
2022-11-29T07:41:01.410Z,66.32
2022-11-29T07:43:01.470Z,66.36
2022-11-29T07:45:01.569Z,66.13
2022-11-29T07:47:01.720Z,66.07
2022-11-29T07:50:01.397Z,66.25
2022-11-29T07:53:01.498Z,66.82
2022-11-29T07:55:01.797Z,66.63
2022-11-29T07:57:01.810Z,66.52
2022-11-29T08:00:01.329Z,66.53
2022-11-29T08:02:02.204Z,66.45
2022-11-29T08:05:01.448Z,66.25
2022-11-29T08:07:01.438Z,66.32
2022-11-29T08:09:01.970Z,66.15
2022-11-29T08:13:01.893Z,65.94
2022-11-29T08:16:01.509Z,65.93
2022-11-29T08:19:01.423Z,65.87
2022-11-29T08:22:01.424Z,65.99
2022-11-29T08:25:02.368Z,65.96
2022-11-29T08:28:01.441Z,65.96
2022-11-29T08:30:01.678Z,65.98
2022-11-29T08:33:01.743Z,65.83
2022-11-29T08:35:02.087Z,65.86
2022-11-29T08:38:01.445Z,65.98
2022-11-29T08:40:02.334Z,65.77
2022-11-29T08:44:01.798Z,65.75
2022-11-29T08:47:08.090Z,65.77
2022-11-29T08:49:08.800Z,66.07
2022-11-29T08:52:01.616Z,66.04
2022-11-29T08:54:01.661Z,65.98
2022-11-29T08:57:38.332Z,65.91
2022-11-29T08:59:01.710Z,66.1
2022-11-29T09:01:02.204Z,66.16
2022-11-29T09:03:02.181Z,65.87
2022-11-29T09:06:01.417Z,66.01
2022-11-29T09:08:01.463Z,65.98
2022-11-29T09:10:08.023Z,66
2022-11-29T09:12:08.661Z,65.85
2022-11-29T09:15:01.429Z,65.93
2022-11-29T09:18:01.434Z,66.07
2022-11-29T09:20:02.125Z,66.18
2022-11-29T09:23:01.995Z,65.97
2022-11-29T09:26:01.449Z,66.06
2022-11-29T09:29:01.789Z,65.69
2022-11-29T09:32:01.522Z,65.77
2022-11-29T09:34:02.026Z,65.68
2022-11-29T09:37:01.464Z,65.6
2022-11-29T09:39:01.464Z,65.65
2022-11-29T09:41:01.544Z,65.72
2022-11-29T09:43:01.826Z,65.87
2022-11-29T09:46:02.082Z,65.67
2022-11-29T09:49:01.457Z,65.69
2022-11-29T09:51:01.497Z,65.48
2022-11-29T09:54:01.443Z,65.34
2022-11-29T09:56:01.446Z,65.96
2022-11-29T09:58:02.121Z,66.19
2022-11-29T10:01:01.490Z,66.2
2022-11-29T10:03:01.968Z,66.2
2022-11-29T10:06:01.435Z,66.27
2022-11-29T10:08:01.538Z,66.04
2022-11-29T10:10:01.800Z,66.62
2022-11-29T10:13:02.065Z,66.03
2022-11-29T10:16:01.689Z,66.57
2022-11-29T10:18:02.091Z,67.42
2022-11-29T10:21:01.413Z,67
2022-11-29T10:23:01.760Z,66.5
2022-11-29T10:26:01.671Z,66.55
2022-11-29T10:30:01.460Z,66.26
2022-11-29T10:33:08.246Z,66.53
2022-11-29T10:35:08.721Z,66.24
2022-11-29T10:38:30.126Z,66.52
2022-11-29T10:41:01.427Z,66.54
2022-11-29T10:43:02.254Z,66.72
2022-11-29T10:46:02.080Z,66.56
2022-11-29T10:49:01.761Z,66.47
2022-11-29T10:53:01.875Z,66.24
2022-11-29T10:56:01.833Z,66.27
2022-11-29T10:59:02.127Z,65.99
2022-11-29T11:02:01.686Z,65.96
2022-11-29T11:05:01.439Z,65.68
2022-11-29T11:07:01.638Z,65.81
2022-11-29T11:10:01.445Z,65.65
2022-11-29T11:12:01.441Z,65.86
2022-11-29T11:15:01.435Z,65.8
2022-11-29T11:18:08.282Z,65.78
2022-11-29T11:20:08.885Z,65.82
2022-11-29T11:22:14.613Z,65.85
2022-11-29T11:25:14.839Z,65.79
2022-11-29T11:28:01.460Z,65.7
2022-11-29T11:31:01.529Z,66.02
2022-11-29T11:33:01.509Z,66.14
2022-11-29T11:36:01.617Z,66.15
2022-11-29T11:39:01.467Z,66.1
2022-11-29T11:42:01.470Z,66.26
2022-11-29T11:44:04.491Z,66.21
2022-11-29T11:46:08.241Z,66.26
2022-11-29T11:49:07.099Z,66.32
2022-11-29T11:52:01.537Z,66.26
2022-11-29T11:56:00.507Z,66.35
2022-11-29T11:58:10.457Z,66.26
2022-11-29T12:01:04.594Z,66.24
2022-11-29T12:03:02.271Z,66.48
2022-11-29T12:06:01.969Z,66.18
2022-11-29T12:09:01.454Z,66.39
2022-11-29T12:11:06.978Z,66.16
2022-11-29T12:14:01.835Z,66.24
2022-11-29T12:18:01.452Z,66.56
2022-11-29T12:20:08.134Z,66.41
2022-11-29T12:22:08.637Z,66.59
2022-11-29T12:25:01.754Z,66.63
2022-11-29T12:28:01.469Z,66.84
2022-11-29T12:30:15.517Z,66.85
2022-11-29T12:33:01.469Z,66.75
2022-11-29T12:35:02.012Z,66.86
2022-11-29T12:38:01.458Z,66.71
2022-11-29T12:40:01.645Z,66.65
2022-11-29T12:43:01.870Z,66.98
2022-11-29T12:47:28.070Z,66.69
2022-11-29T12:49:08.043Z,66.78
2022-11-29T12:52:01.429Z,66.78
2022-11-29T12:54:01.608Z,66.63
2022-11-29T12:58:01.453Z,66.76
2022-11-29T13:01:08.841Z,66.55
2022-11-29T13:04:01.816Z,66.51
2022-11-29T13:07:01.428Z,66.66
2022-11-29T13:10:01.491Z,66.72
2022-11-29T13:15:08.552Z,66.72
2022-11-29T13:18:01.464Z,66.6
2022-11-29T13:21:02.319Z,66.79
2022-11-29T13:24:08.993Z,66.75
2022-11-29T13:26:01.935Z,66.94
2022-11-29T13:29:02.292Z,67.01
2022-11-29T13:32:01.509Z,66.81
2022-11-29T13:34:01.527Z,66.7
2022-11-29T13:36:01.804Z,66.67
2022-11-29T13:38:02.137Z,66.63
2022-11-29T13:43:08.810Z,66.7
2022-11-29T13:47:01.451Z,66.79
2022-11-29T13:51:01.814Z,66.99
2022-11-29T13:54:08.060Z,67.06
2022-11-29T13:56:15.303Z,66.93
2022-11-29T13:59:01.449Z,66.86
2022-11-29T14:01:01.525Z,66.9
2022-11-29T14:03:01.958Z,66.97
2022-11-29T14:06:01.459Z,66.88
2022-11-29T14:08:02.207Z,66.87
2022-11-29T14:11:01.456Z,66.94
2022-11-29T14:13:01.875Z,66.97
2022-11-29T14:16:01.482Z,66.98
2022-11-29T14:18:01.444Z,67.23
2022-11-29T14:21:01.947Z,67.1
2022-11-29T14:24:01.546Z,67.14
2022-11-29T14:27:01.465Z,67.35
2022-11-29T14:29:02.018Z,67.1
2022-11-29T14:31:08.081Z,67.15
2022-11-29T14:33:08.717Z,67.19
2022-11-29T14:36:01.612Z,67.06
2022-11-29T14:38:02.086Z,66.88
2022-11-29T14:41:01.433Z,66.99
2022-11-29T14:45:01.498Z,66.9
2022-11-29T14:47:01.536Z,66.75
2022-11-29T14:49:01.499Z,66.92
2022-11-29T14:52:01.559Z,66.81
2022-11-29T14:55:01.463Z,66.89
2022-11-29T14:58:01.652Z,67.79
2022-11-29T15:01:05.094Z,67.05
2022-11-29T15:03:02.000Z,67.03
2022-11-29T15:06:01.454Z,67.1
2022-11-29T15:08:01.479Z,68.1
2022-11-29T15:11:02.312Z,67.95
2022-11-29T15:14:01.730Z,67.72
2022-11-29T15:18:01.471Z,67.13
2022-11-29T15:21:01.499Z,68.08
2022-11-29T15:23:02.539Z,67.35
2022-11-29T15:26:01.936Z,67.44
2022-11-29T15:29:01.512Z,67.14
2022-11-29T15:31:02.239Z,67.04
2022-11-29T15:34:10.572Z,67.01
2022-11-29T15:37:08.039Z,66.67
2022-11-29T15:40:01.770Z,66.61
2022-11-29T15:43:01.457Z,66.57
2022-11-29T15:46:01.554Z,66.57
2022-11-29T15:48:01.729Z,66.67
2022-11-29T15:51:02.201Z,66.68
2022-11-29T15:54:11.968Z,66.76
2022-11-29T15:56:01.471Z,66.76
2022-11-29T15:58:05.488Z,66.5
2022-11-29T16:01:01.810Z,66.82
2022-11-29T16:03:02.330Z,66.7
2022-11-29T16:06:01.460Z,66.68
2022-11-29T16:08:01.535Z,66.71
2022-11-29T16:11:01.459Z,66.8
2022-11-29T16:13:01.945Z,66.79
2022-11-29T16:16:01.471Z,66.7
2022-11-29T16:18:01.932Z,66.79
2022-11-29T16:21:00.634Z,66.67
2022-11-29T16:23:01.446Z,66.83
2022-11-29T16:25:01.470Z,66.78
2022-11-29T16:28:01.833Z,66.73
2022-11-29T16:32:02.101Z,66.51
2022-11-29T16:34:02.114Z,66.78
2022-11-29T16:37:01.569Z,66.63
2022-11-29T16:40:01.452Z,66.73
2022-11-29T16:43:01.940Z,66.79
2022-11-29T16:45:02.126Z,66.74
2022-11-29T16:48:01.465Z,66.73
2022-11-29T16:50:02.278Z,66.81
2022-11-29T16:54:01.434Z,66.98
2022-11-29T16:56:01.450Z,66.8
2022-11-29T16:58:01.491Z,67.02
2022-11-29T17:01:02.382Z,67.06
2022-11-29T17:04:01.511Z,67.29
2022-11-29T17:06:01.582Z,67.32
2022-11-29T17:12:01.933Z,67.26
2022-11-29T17:15:08.129Z,67.23
2022-11-29T17:18:01.755Z,67.29
2022-11-29T17:21:01.441Z,67.54
2022-11-29T17:24:01.671Z,67.44
2022-11-29T17:27:02.291Z,67.49
2022-11-29T17:30:01.454Z,67.36
2022-11-29T17:32:01.509Z,67.39
2022-11-29T17:35:01.891Z,67.63
2022-11-29T17:38:01.479Z,67.46
2022-11-29T17:40:01.523Z,67.5
2022-11-29T17:42:02.134Z,67.51
2022-11-29T17:45:01.474Z,67.38
2022-11-29T17:47:02.342Z,67.57
2022-11-29T17:50:00.510Z,67.6
2022-11-29T17:52:01.619Z,67.55
2022-11-29T17:54:02.217Z,67.48
2022-11-29T17:57:01.975Z,67.54
2022-11-29T18:00:01.461Z,67.61
2022-11-29T18:03:01.460Z,67.57
2022-11-29T18:06:01.915Z,67.66
2022-11-29T18:09:01.987Z,67.53
2022-11-29T18:12:01.465Z,67.56
2022-11-29T18:14:01.488Z,67.51
2022-11-29T18:18:00.559Z,67.64
2022-11-29T18:20:08.541Z,67.52
2022-11-29T18:23:14.666Z,67.66
2022-11-29T18:26:08.071Z,67.79
2022-11-29T18:29:02.170Z,67.72
2022-11-29T18:32:02.150Z,67.64
2022-11-29T18:35:01.483Z,67.72
2022-11-29T18:38:15.067Z,67.67
2022-11-29T18:40:02.432Z,67.84
2022-11-29T18:43:01.609Z,67.73
2022-11-29T18:46:01.467Z,67.84
2022-11-29T18:48:02.271Z,67.67
2022-11-29T18:51:01.437Z,67.66
2022-11-29T18:53:01.465Z,67.75
2022-11-29T18:55:01.456Z,67.83
2022-11-29T18:58:01.473Z,67.6
2022-11-29T19:00:02.233Z,67.69
2022-11-29T19:03:01.460Z,67.55
2022-11-29T19:06:01.447Z,67.63
2022-11-29T19:08:01.597Z,67.48
2022-11-29T19:10:02.229Z,67.67
2022-11-29T19:14:02.495Z,67.67
2022-11-29T19:16:01.636Z,67.63
2022-11-29T19:18:02.111Z,67.68
2022-11-29T19:21:01.595Z,67.81
2022-11-29T19:23:01.979Z,67.96
2022-11-29T19:26:01.577Z,67.59
2022-11-29T19:30:01.486Z,67.69
2022-11-29T19:32:02.062Z,67.68
2022-11-29T19:34:02.436Z,67.7
2022-11-29T19:37:02.321Z,67.6
2022-11-29T19:40:01.494Z,67.63
2022-11-29T19:42:02.036Z,67.75
2022-11-29T19:45:16.326Z,67.68
2022-11-29T19:48:01.457Z,67.7
2022-11-29T19:50:02.877Z,67.79
2022-11-29T19:53:01.797Z,67.61
2022-11-29T19:56:01.480Z,67.57
2022-11-29T19:58:01.716Z,67.59
2022-11-29T20:01:02.175Z,67.54
2022-11-29T20:04:01.449Z,67.42
2022-11-29T20:07:01.455Z,67.28
2022-11-29T20:09:01.646Z,67.44
2022-11-29T20:11:02.021Z,67.36
2022-11-29T20:14:01.790Z,67.13
2022-11-29T20:16:02.205Z,66.97
2022-11-29T20:19:02.065Z,66.76
2022-11-29T20:22:01.806Z,66.52
2022-11-29T20:25:01.457Z,66.43
2022-11-29T20:27:01.900Z,66.34
2022-11-29T20:30:01.475Z,66.26
2022-11-29T20:32:02.063Z,66.08
2022-11-29T20:34:03.266Z,66.03
2022-11-29T20:37:08.060Z,66.1
2022-11-29T20:39:08.632Z,66.13
2022-11-29T20:41:21.199Z,65.91
2022-11-29T20:44:08.200Z,65.91
2022-11-29T20:47:08.572Z,65.93
2022-11-29T20:49:09.581Z,65.89
2022-11-29T20:53:02.059Z,66
2022-11-29T20:56:01.479Z,65.95
2022-11-29T20:59:08.063Z,66
2022-11-29T21:01:08.791Z,65.96
2022-11-29T21:04:01.508Z,65.95
2022-11-29T21:06:02.347Z,65.99
2022-11-29T21:08:02.455Z,66.06
2022-11-29T21:10:08.080Z,66.02
2022-11-29T21:12:08.123Z,65.94
2022-11-29T21:15:01.438Z,65.99
2022-11-29T21:17:01.478Z,65.99
2022-11-29T21:20:01.499Z,65.94
2022-11-29T21:22:01.924Z,65.76
2022-11-29T21:25:01.467Z,65.96
2022-11-29T21:27:01.983Z,65.99
2022-11-29T21:29:02.164Z,65.95
2022-11-29T21:32:01.491Z,65.92
2022-11-29T21:35:01.447Z,65.86
2022-11-29T21:37:08.664Z,66.05
2022-11-29T21:41:02.203Z,65.98
2022-11-29T21:44:07.871Z,65.94
2022-11-29T21:46:01.542Z,66.02
2022-11-29T21:49:08.731Z,65.96
2022-11-29T21:52:01.495Z,65.83
2022-11-29T21:54:01.529Z,65.87
2022-11-29T21:56:02.041Z,65.78
2022-11-29T22:00:05.252Z,66.13
2022-11-29T22:04:05.226Z,65.99
2022-11-29T22:06:05.208Z,66.16
2022-11-29T22:08:05.222Z,66.24
2022-11-29T22:10:15.537Z,66.46
2022-11-29T22:12:32.850Z,66
2022-11-29T22:16:05.236Z,66.08
2022-11-29T22:18:05.217Z,66.21
2022-11-29T22:20:05.244Z,66.24
2022-11-29T22:22:15.536Z,65.67
2022-11-29T22:25:05.249Z,65.3
2022-11-29T22:28:05.220Z,64.94
2022-11-29T22:30:05.250Z,65.04
2022-11-29T22:33:08.956Z,64.85
2022-11-29T22:35:05.267Z,64.66
2022-11-29T22:38:05.246Z,64.56
2022-11-29T22:42:05.238Z,64.55
2022-11-29T22:44:15.518Z,64.57
2022-11-29T22:47:05.283Z,64.65
2022-11-29T22:50:05.265Z,64.47
2022-11-29T22:54:05.253Z,64.57
2022-11-29T22:56:15.550Z,64.76
2022-11-29T22:59:05.271Z,64.61
2022-11-29T23:02:05.291Z,64.54
2022-11-29T23:06:05.264Z,64.62
2022-11-29T23:08:15.518Z,64.72
2022-11-29T23:10:15.532Z,64.73
2022-11-29T23:14:05.265Z,64.42
2022-11-29T23:18:05.234Z,65.11
2022-11-29T23:20:18.640Z,65.16
2022-11-29T23:24:05.260Z,65.4
2022-11-29T23:27:05.252Z,65.14
2022-11-29T23:29:05.272Z,65.28
2022-11-29T23:32:05.318Z,65.22
2022-11-29T23:35:05.259Z,65.37
2022-11-29T23:38:05.227Z,65.65
2022-11-29T23:40:05.274Z,65.42
2022-11-29T23:42:05.294Z,65.32
2022-11-29T23:45:05.251Z,65.78
2022-11-29T23:48:05.271Z,65.94
2022-11-29T23:52:05.278Z,65.71
2022-11-29T23:54:15.545Z,65.75
2022-11-29T23:57:05.260Z,65.38
